createdAt,value
2023-06-21T00:00:17.692Z,19.24
2023-06-21T00:02:44.661Z,19.22
2023-06-21T00:05:12.229Z,19.23
2023-06-21T00:07:43.021Z,19.21
2023-06-21T00:10:09.986Z,19.13
2023-06-21T00:12:36.953Z,19.11
2023-06-21T00:15:04.525Z,19.13
2023-06-21T00:17:31.317Z,19.14
2023-06-21T00:19:58.225Z,19.11
2023-06-21T00:22:24.957Z,19.11
2023-06-21T00:24:53.132Z,19.10
2023-06-21T00:27:19.760Z,19.08
2023-06-21T00:29:46.385Z,19.01
2023-06-21T00:32:13.068Z,19.01
2023-06-21T00:34:39.753Z,19.02
2023-06-21T00:37:06.806Z,19.10
2023-06-21T00:39:33.468Z,19.01
2023-06-21T00:42:00.938Z,18.94
2023-06-21T00:44:27.784Z,18.91
2023-06-21T00:46:54.468Z,18.90
2023-06-21T00:49:21.116Z,18.88
2023-06-21T00:51:48.697Z,18.87
2023-06-21T00:54:18.692Z,18.83
2023-06-21T00:56:46.697Z,18.86
2023-06-21T00:59:13.637Z,18.81
2023-06-21T01:01:40.389Z,18.81
2023-06-21T01:04:09.422Z,18.80
2023-06-21T01:06:52.666Z,18.79
2023-06-21T01:09:26.613Z,18.77
2023-06-21T01:11:59.388Z,18.77
2023-06-21T01:14:46.253Z,18.74
2023-06-21T01:17:14.356Z,18.74
2023-06-21T01:19:54.386Z,18.73
2023-06-21T01:22:23.862Z,18.73
2023-06-21T01:25:05.946Z,18.71
2023-06-21T01:27:54.881Z,18.75
2023-06-21T01:30:23.151Z,18.73
2023-06-21T01:32:54.845Z,18.71
2023-06-21T01:35:22.692Z,18.71
2023-06-21T01:37:52.872Z,18.71
2023-06-21T01:40:21.107Z,18.73
2023-06-21T01:42:47.828Z,18.73
2023-06-21T01:45:14.906Z,18.72
2023-06-21T01:47:44.334Z,18.72
2023-06-21T01:50:13.620Z,18.72
2023-06-21T01:52:41.400Z,18.72
2023-06-21T01:55:09.587Z,18.72
2023-06-21T01:57:36.720Z,18.61
2023-06-21T02:00:17.487Z,18.61
2023-06-21T02:02:52.996Z,18.62
2023-06-21T02:05:21.149Z,18.64
2023-06-21T02:07:49.137Z,18.60
2023-06-21T02:10:17.399Z,18.61
2023-06-21T02:12:48.728Z,18.60
2023-06-21T02:15:17.273Z,18.51
2023-06-21T02:17:52.858Z,18.37
2023-06-21T02:20:21.161Z,18.42
2023-06-21T02:22:48.237Z,18.42
2023-06-21T02:25:16.157Z,18.42
2023-06-21T02:27:43.210Z,18.42
2023-06-21T02:30:10.348Z,18.37
2023-06-21T02:32:36.990Z,18.36
2023-06-21T02:35:04.108Z,18.35
2023-06-21T02:37:30.807Z,18.35
2023-06-21T02:39:57.793Z,18.37
2023-06-21T02:42:27.976Z,18.40
2023-06-21T02:44:54.620Z,18.44
2023-06-21T02:47:21.348Z,18.44
2023-06-21T02:49:48.101Z,18.46
2023-06-21T02:52:15.649Z,18.43
2023-06-21T02:54:42.290Z,18.43
2023-06-21T02:57:09.617Z,18.45
2023-06-21T02:59:37.158Z,18.46
2023-06-21T03:02:04.090Z,18.46
2023-06-21T03:04:31.270Z,18.47
2023-06-21T03:06:58.234Z,18.48
2023-06-21T03:09:24.863Z,18.47
2023-06-21T03:11:51.479Z,18.52
2023-06-21T03:14:18.460Z,18.53
2023-06-21T03:16:46.376Z,18.54
2023-06-21T03:19:13.526Z,18.54
2023-06-21T03:21:40.129Z,18.49
2023-06-21T03:24:08.110Z,18.50
2023-06-21T03:26:36.478Z,18.52
2023-06-21T03:29:07.985Z,18.54
2023-06-21T03:31:35.743Z,18.49
2023-06-21T03:34:02.532Z,18.43
2023-06-21T03:36:29.796Z,18.40
2023-06-21T03:38:56.531Z,18.41
2023-06-21T03:41:23.324Z,18.45
2023-06-21T03:43:50.002Z,18.50
2023-06-21T03:46:17.198Z,18.51
2023-06-21T03:48:44.032Z,18.51
2023-06-21T03:51:10.656Z,18.56
2023-06-21T03:53:37.274Z,18.55
2023-06-21T03:56:05.235Z,18.57
2023-06-21T03:58:31.854Z,18.59
2023-06-21T04:00:58.457Z,18.58
2023-06-21T04:03:25.131Z,18.59
2023-06-21T04:05:51.899Z,18.60
2023-06-21T04:08:18.530Z,18.59
2023-06-21T04:10:45.203Z,18.58
2023-06-21T04:13:11.869Z,18.58
2023-06-21T04:15:38.532Z,18.54
2023-06-21T04:18:05.245Z,18.50
2023-06-21T04:20:32.069Z,18.53
2023-06-21T04:22:58.933Z,18.57
2023-06-21T04:25:25.669Z,18.63
2023-06-21T04:27:52.312Z,18.64
2023-06-21T04:30:18.991Z,18.67
2023-06-21T04:32:46.997Z,18.71
2023-06-21T04:35:17.853Z,18.74
2023-06-21T04:37:48.575Z,18.77
2023-06-21T04:40:18.040Z,18.81
2023-06-21T04:42:55.798Z,18.85
2023-06-21T04:45:23.745Z,18.90
2023-06-21T04:47:50.442Z,18.94
2023-06-21T04:52:50.190Z,19.00
2023-06-21T04:55:20.392Z,19.04
2023-06-21T04:57:48.852Z,19.09
2023-06-21T05:00:16.362Z,19.09
2023-06-21T05:02:43.428Z,19.09
2023-06-21T05:05:10.372Z,19.13
2023-06-21T05:07:39.142Z,19.12
2023-06-21T05:10:10.289Z,19.23
2023-06-21T05:12:37.234Z,19.32
2023-06-21T05:15:04.978Z,19.46
2023-06-21T05:17:31.632Z,19.58
2023-06-21T05:19:58.340Z,19.69
2023-06-21T05:22:24.976Z,19.80
2023-06-21T05:24:51.594Z,19.89
2023-06-21T05:27:18.205Z,19.98
2023-06-21T05:29:44.820Z,20.11
2023-06-21T05:32:11.683Z,20.26
2023-06-21T05:34:38.315Z,20.48
2023-06-21T05:37:05.215Z,20.65
2023-06-21T05:39:31.888Z,20.83
2023-06-21T05:41:58.466Z,20.87
2023-06-21T05:44:25.091Z,20.98
2023-06-21T05:46:51.728Z,21.11
2023-06-21T05:49:19.455Z,21.28
2023-06-21T05:51:46.152Z,21.53
2023-06-21T05:54:15.335Z,21.73
2023-06-21T05:56:42.532Z,21.95
2023-06-21T05:59:09.551Z,22.09
2023-06-21T06:01:36.573Z,22.19
2023-06-21T06:04:03.317Z,22.28
2023-06-21T06:06:38.392Z,22.46
2023-06-21T06:09:05.659Z,22.63
2023-06-21T06:11:32.393Z,22.87
2023-06-21T06:13:59.216Z,23.02
2023-06-21T06:16:25.974Z,23.15
2023-06-21T06:18:52.859Z,23.09
2023-06-21T06:21:22.768Z,22.98
2023-06-21T06:23:51.405Z,22.90
2023-06-21T06:26:27.065Z,22.95
2023-06-21T06:28:55.146Z,23.13
2023-06-21T06:31:24.907Z,23.28
2023-06-21T06:33:51.927Z,23.53
2023-06-21T06:36:19.070Z,23.84
2023-06-21T06:38:50.015Z,24.18
2023-06-21T06:41:18.552Z,24.49
2023-06-21T06:43:45.940Z,24.74
2023-06-21T06:46:12.760Z,24.95
2023-06-21T06:48:39.420Z,25.21
2023-06-21T06:51:06.138Z,25.51
2023-06-21T06:53:32.830Z,25.79
2023-06-21T06:56:00.959Z,26.06
2023-06-21T06:58:31.540Z,26.28
2023-06-21T07:00:58.276Z,26.45
2023-06-21T07:03:25.026Z,26.64
2023-06-21T07:05:51.817Z,26.80
2023-06-21T07:08:18.710Z,27.05
2023-06-21T07:10:45.695Z,27.33
2023-06-21T07:13:12.486Z,27.53
2023-06-21T07:15:39.151Z,27.74
2023-06-21T07:18:06.190Z,27.89
2023-06-21T07:20:33.692Z,28.03
2023-06-21T07:23:00.870Z,28.23
2023-06-21T07:25:27.821Z,28.47
2023-06-21T07:27:54.844Z,28.32
2023-06-21T07:30:21.749Z,28.54
2023-06-21T07:32:49.026Z,28.18
2023-06-21T07:35:17.498Z,28.38
2023-06-21T07:37:45.160Z,28.31
2023-06-21T07:40:13.109Z,28.60
2023-06-21T07:42:41.200Z,28.90
2023-06-21T07:45:08.817Z,29.06
2023-06-21T07:47:35.821Z,29.16
2023-06-21T07:50:17.107Z,29.11
2023-06-21T07:52:48.420Z,29.24
2023-06-21T07:55:15.208Z,29.35
2023-06-21T07:57:42.242Z,29.52
2023-06-21T08:00:13.057Z,29.72
2023-06-21T08:02:42.205Z,29.98
2023-06-21T08:05:09.488Z,29.84
2023-06-21T08:07:36.207Z,29.88
2023-06-21T08:10:03.313Z,29.95
2023-06-21T08:12:29.978Z,30.04
2023-06-21T08:14:56.651Z,30.20
2023-06-21T08:17:23.350Z,30.39
2023-06-21T08:19:50.055Z,30.60
2023-06-21T08:22:16.703Z,30.56
2023-06-21T08:24:43.365Z,30.62
2023-06-21T08:27:10.354Z,30.70
2023-06-21T08:29:37.068Z,30.84
2023-06-21T08:32:06.220Z,30.93
2023-06-21T08:34:33.615Z,30.90
2023-06-21T08:37:00.247Z,31.23
2023-06-21T08:39:28.563Z,31.41
2023-06-21T08:41:56.572Z,31.43
2023-06-21T08:44:23.421Z,31.18
2023-06-21T08:46:53.059Z,30.96
2023-06-21T08:49:22.119Z,31.02
2023-06-21T08:51:49.839Z,31.21
2023-06-21T08:54:20.169Z,31.14
2023-06-21T08:56:51.402Z,31.25
2023-06-21T08:59:24.382Z,31.55
2023-06-21T09:02:33.060Z,31.48
2023-06-21T09:05:10.198Z,31.51
2023-06-21T09:07:38.060Z,31.56
2023-06-21T09:10:05.999Z,31.44
2023-06-21T09:12:35.920Z,31.56
2023-06-21T09:15:03.760Z,31.53
2023-06-21T09:17:31.464Z,31.49
2023-06-21T09:19:58.351Z,31.11
2023-06-21T09:22:27.917Z,31.25
2023-06-21T09:24:54.630Z,31.36
2023-06-21T09:27:21.286Z,31.27
2023-06-21T09:29:48.064Z,31.31
2023-06-21T09:32:14.722Z,31.14
2023-06-21T09:34:41.366Z,31.09
2023-06-21T09:37:08.028Z,31.20
2023-06-21T09:39:34.660Z,31.35
2023-06-21T09:42:01.381Z,31.41
2023-06-21T09:44:27.964Z,31.69
2023-06-21T09:47:00.434Z,31.55
2023-06-21T09:49:29.101Z,31.56
2023-06-21T09:51:56.959Z,31.67
2023-06-21T09:54:23.611Z,31.43
2023-06-21T09:56:50.702Z,31.21
2023-06-21T09:59:19.623Z,31.14
2023-06-21T10:01:47.751Z,31.30
2023-06-21T10:04:16.165Z,31.44
2023-06-21T10:06:50.532Z,31.51
2023-06-21T10:09:17.058Z,31.43
2023-06-21T10:11:49.824Z,31.57
2023-06-21T10:14:23.812Z,31.51
2023-06-21T10:16:52.340Z,31.63
2023-06-21T10:19:24.863Z,31.77
2023-06-21T10:22:07.679Z,31.81
2023-06-21T10:24:48.697Z,31.80
2023-06-21T10:27:16.287Z,31.87
2023-06-21T10:29:44.720Z,32.01
2023-06-21T10:32:12.886Z,32.07
2023-06-21T10:34:58.165Z,31.91
2023-06-21T10:37:56.557Z,31.38
2023-06-21T10:40:23.556Z,31.58
2023-06-21T10:42:51.455Z,31.65
2023-06-21T10:45:18.623Z,31.69
2023-06-21T10:47:48.441Z,31.83
2023-06-21T10:50:17.359Z,31.60
2023-06-21T10:52:45.124Z,31.43
2023-06-21T10:55:14.424Z,31.45
2023-06-21T10:57:41.816Z,31.50
2023-06-21T11:00:09.365Z,31.40
2023-06-21T11:02:36.536Z,31.36
2023-06-21T11:05:18.783Z,31.39
2023-06-21T11:07:58.538Z,31.12
2023-06-21T11:10:50.879Z,31.17
2023-06-21T11:13:33.694Z,31.09
2023-06-21T11:16:11.369Z,31.19
2023-06-21T11:18:38.155Z,31.17
2023-06-21T11:21:07.990Z,31.12
2023-06-21T11:23:55.904Z,31.12
2023-06-21T11:26:23.611Z,31.06
2023-06-21T11:28:51.027Z,30.93
2023-06-21T11:31:24.127Z,30.78
2023-06-21T11:33:54.597Z,30.67
2023-06-21T11:36:31.102Z,30.54
2023-06-21T11:39:06.914Z,30.55
2023-06-21T11:41:41.422Z,30.57
2023-06-21T11:44:15.644Z,30.48
2023-06-21T11:46:43.986Z,30.47
2023-06-21T11:49:10.620Z,30.45
2023-06-21T11:51:50.204Z,30.46
2023-06-21T11:54:49.397Z,30.49
2023-06-21T11:57:16.066Z,30.38
2023-06-21T11:59:44.646Z,30.53
2023-06-21T12:02:14.913Z,30.63
2023-06-21T12:04:43.147Z,30.54
2023-06-21T12:07:11.210Z,30.53
2023-06-21T12:09:48.752Z,30.55
2023-06-21T12:12:17.930Z,30.35
2023-06-21T12:14:44.780Z,30.38
2023-06-21T12:17:17.167Z,30.37
2023-06-21T12:19:43.785Z,30.46
2023-06-21T12:22:13.744Z,30.51
2023-06-21T12:24:40.505Z,30.61
2023-06-21T12:27:07.250Z,30.69
2023-06-21T12:29:33.931Z,30.59
2023-06-21T12:32:00.640Z,30.51
2023-06-21T12:34:27.405Z,30.71
2023-06-21T12:36:56.342Z,30.81
2023-06-21T12:39:24.209Z,30.82
2023-06-21T12:41:51.137Z,30.83
2023-06-21T12:44:20.830Z,30.85
2023-06-21T12:46:47.874Z,30.88
2023-06-21T12:49:15.956Z,30.79
2023-06-21T12:51:45.825Z,30.78
2023-06-21T12:54:21.361Z,30.71
2023-06-21T12:56:59.940Z,30.82
2023-06-21T12:59:28.073Z,30.87
2023-06-21T13:01:57.265Z,31.14
2023-06-21T13:04:24.196Z,31.07
2023-06-21T13:06:51.257Z,31.16
2023-06-21T13:09:18.071Z,31.15
2023-06-21T13:11:45.854Z,31.12
2023-06-21T13:14:12.555Z,31.01
2023-06-21T13:16:39.165Z,30.89
2023-06-21T13:19:08.066Z,30.87
2023-06-21T13:21:34.984Z,30.73
2023-06-21T13:24:02.524Z,30.55
2023-06-21T13:26:30.203Z,30.29
2023-06-21T13:28:56.965Z,30.23
2023-06-21T13:31:24.986Z,30.12
2023-06-21T13:33:52.926Z,29.84
2023-06-21T13:36:19.561Z,29.73
2023-06-21T13:38:46.296Z,29.63
2023-06-21T13:41:13.001Z,29.47
2023-06-21T13:43:39.687Z,29.31
2023-06-21T13:46:06.385Z,29.19
2023-06-21T13:48:33.131Z,29.07
2023-06-21T13:51:00.003Z,28.99
2023-06-21T13:53:28.272Z,28.81
2023-06-21T13:55:55.098Z,28.56
2023-06-21T13:58:23.387Z,28.39
2023-06-21T14:00:50.424Z,28.26
2023-06-21T14:03:17.255Z,28.14
2023-06-21T14:05:44.006Z,27.96
2023-06-21T14:08:10.602Z,27.77
2023-06-21T14:10:38.303Z,27.65
2023-06-21T14:13:04.902Z,27.58
2023-06-21T14:15:31.564Z,27.48
2023-06-21T14:18:03.754Z,27.34
2023-06-21T14:20:31.402Z,27.25
2023-06-21T14:22:58.498Z,27.15
2023-06-21T14:25:25.128Z,27.10
2023-06-21T14:27:51.823Z,27.10
2023-06-21T14:30:21.359Z,26.98
2023-06-21T14:32:48.742Z,26.93
2023-06-21T14:35:15.723Z,26.82
2023-06-21T14:37:45.088Z,26.73
2023-06-21T14:40:12.023Z,26.62
2023-06-21T14:42:38.668Z,26.51
2023-06-21T14:45:05.985Z,26.40
2023-06-21T14:47:32.920Z,26.25
2023-06-21T14:49:59.558Z,26.15
2023-06-21T14:52:26.254Z,26.08
2023-06-21T14:54:53.459Z,26.02
2023-06-21T14:57:20.323Z,25.99
2023-06-21T14:59:46.980Z,25.96
2023-06-21T15:02:14.071Z,25.91
2023-06-21T15:04:41.422Z,25.82
2023-06-21T15:07:08.896Z,25.74
2023-06-21T15:09:35.640Z,25.60
2023-06-21T15:12:02.362Z,25.49
2023-06-21T15:14:29.000Z,25.39
2023-06-21T15:16:57.453Z,25.32
2023-06-21T15:19:25.925Z,25.22
2023-06-21T15:21:52.954Z,25.14
2023-06-21T15:24:19.989Z,25.08
2023-06-21T15:26:46.926Z,24.99
2023-06-21T15:29:13.594Z,24.96
2023-06-21T15:31:42.480Z,24.84
2023-06-21T15:34:13.923Z,24.81
2023-06-21T15:36:42.454Z,24.71
2023-06-21T15:39:10.011Z,24.58
2023-06-21T15:41:37.757Z,24.52
2023-06-21T15:44:06.027Z,24.47
2023-06-21T15:46:32.868Z,24.41
2023-06-21T15:48:59.549Z,24.37
2023-06-21T15:51:26.392Z,24.33
2023-06-21T15:53:58.169Z,24.23
2023-06-21T15:56:26.233Z,24.12
2023-06-21T15:58:53.407Z,24.07
2023-06-21T16:01:21.418Z,24.03
2023-06-21T16:03:49.525Z,23.92
2023-06-21T16:06:17.350Z,23.79
2023-06-21T16:08:44.696Z,23.74
2023-06-21T16:11:12.754Z,23.62
2023-06-21T16:13:46.662Z,23.48
2023-06-21T16:16:14.437Z,23.41
2023-06-21T16:18:41.191Z,23.33
2023-06-21T16:21:07.927Z,23.23
2023-06-21T16:23:34.659Z,23.24
2023-06-21T16:26:01.902Z,23.28
2023-06-21T16:28:28.661Z,23.23
2023-06-21T16:30:55.451Z,23.19
2023-06-21T16:33:22.181Z,23.13
2023-06-21T16:35:49.401Z,23.08
2023-06-21T16:38:16.212Z,22.99
2023-06-21T16:40:43.036Z,22.96
2023-06-21T16:43:11.331Z,22.87
2023-06-21T16:45:38.672Z,22.76
2023-06-21T16:48:05.877Z,22.53
2023-06-21T16:50:33.068Z,22.33
2023-06-21T16:52:59.948Z,22.17
2023-06-21T16:55:26.949Z,22.15
2023-06-21T16:57:53.774Z,22.14
2023-06-21T17:00:20.660Z,22.19
2023-06-21T17:02:47.507Z,22.23
2023-06-21T17:05:14.308Z,22.27
2023-06-21T17:07:41.916Z,22.34
2023-06-21T17:10:09.038Z,22.29
2023-06-21T17:12:36.604Z,22.28
2023-06-21T17:15:03.626Z,22.18
2023-06-21T17:17:30.397Z,22.11
2023-06-21T17:19:57.071Z,22.01
2023-06-21T17:22:23.735Z,21.93
2023-06-21T17:24:52.310Z,21.84
2023-06-21T17:27:19.602Z,21.86
2023-06-21T17:29:47.915Z,21.88
2023-06-21T17:32:15.105Z,21.86
2023-06-21T17:34:43.854Z,21.77
2023-06-21T17:37:11.055Z,21.68
2023-06-21T17:39:38.242Z,21.66
2023-06-21T17:42:06.368Z,21.64
2023-06-21T17:44:33.024Z,21.64
2023-06-21T17:46:59.899Z,21.63
2023-06-21T17:49:26.553Z,21.57
2023-06-21T17:51:53.386Z,21.54
2023-06-21T17:54:23.249Z,21.50
2023-06-21T17:56:50.183Z,21.51
2023-06-21T17:59:16.824Z,21.52
2023-06-21T18:01:43.514Z,21.47
2023-06-21T18:04:10.257Z,21.43
2023-06-21T18:06:36.996Z,21.41
2023-06-21T18:09:03.797Z,21.40
2023-06-21T18:11:30.625Z,21.39
2023-06-21T18:13:57.383Z,21.42
2023-06-21T18:16:24.195Z,21.41
2023-06-21T18:18:50.877Z,21.36
2023-06-21T18:21:17.694Z,21.29
2023-06-21T18:23:44.287Z,21.23
2023-06-21T18:26:12.891Z,21.24
2023-06-21T18:28:39.762Z,21.23
2023-06-21T18:31:06.499Z,21.24
2023-06-21T18:33:33.222Z,21.22
2023-06-21T18:35:59.885Z,21.20
2023-06-21T18:38:28.859Z,21.18
2023-06-21T18:40:55.960Z,21.14
2023-06-21T18:43:24.407Z,21.15
2023-06-21T18:45:51.093Z,21.02
2023-06-21T18:48:17.976Z,21.01
2023-06-21T18:50:44.653Z,20.99
2023-06-21T18:53:11.285Z,20.91
2023-06-21T18:55:37.916Z,20.93
2023-06-21T18:58:04.679Z,20.94
2023-06-21T19:00:31.318Z,20.98
2023-06-21T19:02:58.091Z,20.96
2023-06-21T19:05:24.922Z,20.99
2023-06-21T19:07:51.972Z,21.00
2023-06-21T19:10:18.601Z,21.00
2023-06-21T19:12:45.909Z,20.97
2023-06-21T19:15:12.654Z,20.96
2023-06-21T19:17:39.361Z,20.92
2023-06-21T19:20:06.934Z,20.89
2023-06-21T19:22:33.590Z,20.88
2023-06-21T19:25:01.128Z,20.87
2023-06-21T19:27:27.872Z,20.81
2023-06-21T19:29:54.660Z,20.76
2023-06-21T19:32:21.480Z,20.66
2023-06-21T19:34:49.471Z,20.62
2023-06-21T19:37:17.152Z,20.60
2023-06-21T19:39:47.259Z,20.53
2023-06-21T19:42:14.313Z,20.52
2023-06-21T19:44:41.926Z,20.47
2023-06-21T19:47:10.830Z,20.45
2023-06-21T19:49:38.703Z,20.42
2023-06-21T19:52:05.826Z,20.39
2023-06-21T19:54:32.452Z,20.31
2023-06-21T19:56:59.607Z,20.29
2023-06-21T19:59:26.307Z,20.23
2023-06-21T20:01:53.071Z,20.19
2023-06-21T20:04:19.769Z,20.09
2023-06-21T20:06:46.414Z,20.07
2023-06-21T20:09:13.094Z,20.03
2023-06-21T20:11:39.760Z,19.95
2023-06-21T20:14:06.551Z,19.91
2023-06-21T20:16:33.185Z,19.88
2023-06-21T20:18:59.835Z,19.88
2023-06-21T20:21:26.441Z,19.78
2023-06-21T20:23:53.099Z,19.73
2023-06-21T20:26:19.839Z,19.71
2023-06-21T20:28:46.455Z,19.72
2023-06-21T20:31:13.177Z,19.67
2023-06-21T20:33:39.802Z,19.64
2023-06-21T20:36:07.961Z,19.64
2023-06-21T20:38:36.960Z,19.62
2023-06-21T20:41:10.557Z,19.60
2023-06-21T20:43:40.615Z,19.57
2023-06-21T20:46:07.865Z,19.55
2023-06-21T20:48:34.706Z,19.50
2023-06-21T20:51:01.437Z,19.35
2023-06-21T20:53:30.741Z,19.28
2023-06-21T20:56:07.842Z,19.28
2023-06-21T20:58:34.712Z,19.29
2023-06-21T21:01:01.426Z,19.28
2023-06-21T21:03:28.430Z,19.26
2023-06-21T21:05:55.443Z,19.25
2023-06-21T21:08:22.310Z,19.26
2023-06-21T21:10:48.930Z,19.25
2023-06-21T21:13:22.358Z,19.26
2023-06-21T21:15:49.056Z,19.24
2023-06-21T21:18:15.667Z,19.23
2023-06-21T21:20:42.335Z,19.21
2023-06-21T21:23:09.084Z,19.17
2023-06-21T21:25:35.695Z,19.15
2023-06-21T21:28:02.369Z,19.12
2023-06-21T21:30:29.343Z,19.06
2023-06-21T21:32:58.530Z,19.11
2023-06-21T21:35:25.629Z,19.06
2023-06-21T21:37:52.269Z,19.04
2023-06-21T21:40:18.891Z,19.02
2023-06-21T21:42:45.510Z,19.02
2023-06-21T21:45:12.337Z,19.01
2023-06-21T21:47:39.042Z,18.97
2023-06-21T21:50:06.174Z,18.94
2023-06-21T21:52:32.770Z,18.89
2023-06-21T21:54:59.410Z,18.85
2023-06-21T21:57:26.117Z,18.78
2023-06-21T21:59:54.379Z,18.73
2023-06-21T22:02:21.117Z,18.70
2023-06-21T22:04:47.987Z,18.66
2023-06-21T22:07:14.781Z,18.63
2023-06-21T22:09:41.412Z,18.61
2023-06-21T22:12:08.450Z,18.58
2023-06-21T22:14:36.389Z,18.57
2023-06-21T22:17:07.268Z,18.57
2023-06-21T22:19:33.895Z,18.55
2023-06-21T22:22:03.126Z,18.56
2023-06-21T22:24:30.567Z,18.55
2023-06-21T22:26:57.273Z,18.52
2023-06-21T22:29:24.782Z,18.51
2023-06-21T22:31:51.477Z,18.50
2023-06-21T22:34:21.045Z,18.47
2023-06-21T22:36:47.735Z,18.43
2023-06-21T22:39:14.762Z,18.41
2023-06-21T22:41:42.071Z,18.39
2023-06-21T22:44:09.423Z,18.30
2023-06-21T22:46:36.752Z,18.27
2023-06-21T22:49:05.021Z,18.27
2023-06-21T22:51:34.279Z,18.27
2023-06-21T22:54:01.183Z,18.26
2023-06-21T22:56:27.839Z,18.28
2023-06-21T22:58:54.487Z,18.31
2023-06-21T23:01:21.503Z,18.30
2023-06-21T23:03:48.946Z,18.31
2023-06-21T23:06:18.265Z,18.32
2023-06-21T23:08:46.322Z,18.27
2023-06-21T23:11:16.085Z,18.23
2023-06-21T23:13:43.377Z,18.24
2023-06-21T23:16:10.790Z,18.25
2023-06-21T23:18:38.995Z,18.18
2023-06-21T23:21:07.475Z,18.17
2023-06-21T23:23:34.777Z,18.15
2023-06-21T23:26:01.540Z,18.14
2023-06-21T23:28:32.163Z,18.13
2023-06-21T23:30:59.976Z,18.15
2023-06-21T23:33:50.457Z,18.17
2023-06-21T23:36:17.184Z,18.14
2023-06-21T23:38:54.912Z,18.09
2023-06-21T23:41:23.278Z,18.05
2023-06-21T23:43:59.152Z,18.03
2023-06-21T23:46:30.505Z,18.00
2023-06-21T23:48:59.659Z,17.96
2023-06-21T23:51:28.196Z,17.97
2023-06-21T23:53:54.880Z,17.95
2023-06-21T23:56:24.746Z,17.95
2023-06-21T23:58:53.231Z,17.92
